Time;durP1;ratioP1;P1;durP2;ratioP2;P2;SDS_P1;SDS_P2;PMS_P1;PMS_P2;Temp;Humidity;BMP_temperature;BMP_pressure;BME280_temperature;BME280_humidity;BME280_pressure;Samples;Min_cycle;Max_cycle;Signal;HPM_P1;HPM_P2
2023/05/06 00:00:05;;;;;;;0.50;0.50;;;;;;;;;;5114139;28;20181;-92
2023/05/06 00:02:31;;;;;;;0.40;0.40;;;;;;;;;;5115814;28;20221;-90
2023/05/06 00:04:57;;;;;;;0.40;0.40;;;;;;;;;;5116196;28;20265;-89
2023/05/06 00:07:23;;;;;;;0.50;0.50;;;;;;;;;;5115994;28;20170;-91
2023/05/06 00:09:49;;;;;;;0.40;0.40;;;;;;;;;;5105010;28;20237;-87
2023/05/06 00:12:15;;;;;;;0.40;0.40;;;;;;;;;;5098129;28;20199;-87
2023/05/06 00:14:41;;;;;;;0.40;0.40;;;;;;;;;;5099895;28;20602;-85
2023/05/06 00:17:07;;;;;;;0.40;0.40;;;;;;;;;;5100455;28;20181;-84
2023/05/06 00:19:33;;;;;;;0.47;0.47;;;;;;;;;;5101065;28;20268;-84
2023/05/06 00:22:00;;;;;;;0.30;0.30;;;;;;;;;;5100286;28;20174;-86
2023/05/06 00:24:26;;;;;;;0.30;0.30;;;;;;;;;;5100470;28;20190;-85
2023/05/06 00:26:52;;;;;;;0.40;0.40;;;;;;;;;;5100819;28;20637;-86
2023/05/06 00:29:18;;;;;;;0.50;0.50;;;;;;;;;;5109259;28;20166;-85
2023/05/06 00:31:44;;;;;;;0.50;0.50;;;;;;;;;;5101867;28;20690;-84
2023/05/06 00:34:10;;;;;;;0.47;0.47;;;;;;;;;;5100119;28;20197;-85
2023/05/06 00:36:37;;;;;;;0.40;0.40;;;;;;;;;;5100386;28;20230;-85
2023/05/06 00:39:03;;;;;;;0.40;0.40;;;;;;;;;;5101619;28;20178;-84
2023/05/06 00:41:32;;;;;;;0.30;0.30;;;;;;;;;;5099755;28;20183;-85
2023/05/06 00:43:58;;;;;;;0.30;0.30;;;;;;;;;;5098323;28;20205;-84
2023/05/06 00:46:24;;;;;;;0.40;0.40;;;;;;;;;;5099262;28;20174;-84
2023/05/06 00:48:51;;;;;;;0.43;0.43;;;;;;;;;;5099147;28;20663;-84
2023/05/06 00:51:17;;;;;;;0.50;0.50;;;;;;;;;;5099851;28;20193;-83
2023/05/06 00:53:45;;;;;;;0.50;0.50;;;;;;;;;;5099027;28;20193;-83
2023/05/06 00:56:11;;;;;;;0.50;0.50;;;;;;;;;;5099531;28;20202;-82
2023/05/06 00:58:38;;;;;;;0.40;0.40;;;;;;;;;;5098934;28;20181;-84
2023/05/06 01:01:04;;;;;;;0.50;0.50;;;;;;;;;;5099135;28;20228;-84
2023/05/06 01:03:30;;;;;;;0.40;0.40;;;;;;;;;;5099154;28;20170;-82
2023/05/06 01:06:08;;;;;;;0.40;0.40;;;;;;;;;;5098935;28;20185;-84
2023/05/06 01:08:35;;;;;;;0.47;0.47;;;;;;;;;;5098091;28;20280;-83
2023/05/06 01:11:23;;;;;;;0.50;0.50;;;;;;;;;;5098479;28;20174;-84
2023/05/06 01:13:56;;;;;;;0.40;0.40;;;;;;;;;;5098338;28;20209;-84
2023/05/06 01:16:22;;;;;;;0.30;0.30;;;;;;;;;;5098217;28;20738;-84
2023/05/06 01:18:49;;;;;;;0.47;0.47;;;;;;;;;;5098413;28;20170;-83
2023/05/06 01:21:16;;;;;;;0.30;0.30;;;;;;;;;;5098906;28;20201;-86
2023/05/06 01:23:52;;;;;;;0.50;0.50;;;;;;;;;;5110706;28;20213;-83
2023/05/06 01:26:18;;;;;;;0.40;0.40;;;;;;;;;;5113524;28;20169;-85
2023/05/06 01:28:44;;;;;;;0.43;0.43;;;;;;;;;;5115639;28;20169;-87
2023/05/06 01:31:12;;;;;;;0.40;0.40;;;;;;;;;;5114711;28;20182;-88
2023/05/06 01:33:53;;;;;;;0.50;0.50;;;;;;;;;;5114420;28;20197;-88
2023/05/06 01:36:23;;;;;;;0.47;0.47;;;;;;;;;;5103872;28;20343;-86
2023/05/06 01:38:57;;;;;;;0.40;0.40;;;;;;;;;;5099609;28;20261;-85
2023/05/06 01:41:24;;;;;;;0.50;0.50;;;;;;;;;;5098690;28;20184;-86
2023/05/06 01:43:52;;;;;;;0.40;0.40;;;;;;;;;;5098458;28;20691;-84
2023/05/06 01:46:19;;;;;;;0.40;0.40;;;;;;;;;;5099286;28;20181;-84
2023/05/06 01:48:46;;;;;;;0.40;0.40;;;;;;;;;;5099481;28;20240;-84
2023/05/06 01:51:12;;;;;;;0.57;0.57;;;;;;;;;;5099103;28;20189;-85
2023/05/06 01:53:38;;;;;;;0.50;0.50;;;;;;;;;;5098762;28;20194;-85
2023/05/06 01:56:04;;;;;;;0.53;0.53;;;;;;;;;;5098793;28;20370;-86
2023/05/06 01:58:30;;;;;;;0.50;0.50;;;;;;;;;;5098643;28;20174;-84
2023/05/06 02:00:56;;;;;;;0.40;0.40;;;;;;;;;;5098340;28;20178;-84
2023/05/06 02:03:22;;;;;;;0.60;0.60;;;;;;;;;;5098473;28;20255;-84
2023/05/06 02:05:49;;;;;;;0.50;0.50;;;;;;;;;;5098075;28;20184;-83
2023/05/06 02:08:15;;;;;;;0.50;0.50;;;;;;;;;;5098079;28;20223;-84
2023/05/06 02:10:41;;;;;;;0.50;0.50;;;;;;;;;;5098226;28;20181;-84
2023/05/06 02:13:07;;;;;;;0.57;0.57;;;;;;;;;;5097627;28;20178;-83
2023/05/06 02:15:33;;;;;;;0.60;0.60;;;;;;;;;;5098172;28;20217;-83
2023/05/06 02:17:59;;;;;;;0.60;0.60;;;;;;;;;;5099008;28;20178;-84
2023/05/06 02:20:25;;;;;;;0.60;0.60;;;;;;;;;;5097443;28;20212;-85
2023/05/06 02:22:51;;;;;;;0.50;0.50;;;;;;;;;;5097211;28;20170;-83
2023/05/06 02:25:17;;;;;;;0.60;0.60;;;;;;;;;;5098368;28;20267;-83
2023/05/06 02:27:43;;;;;;;0.50;0.50;;;;;;;;;;5102114;28;20203;-87
2023/05/06 02:30:10;;;;;;;0.40;0.40;;;;;;;;;;5118725;28;20207;-91
2023/05/06 02:32:36;;;;;;;0.40;0.40;;;;;;;;;;5115371;28;20162;-81
2023/05/06 02:35:02;;;;;;;0.40;0.40;;;;;;;;;;5094213;28;20210;-81
2023/05/06 02:37:28;;;;;;;0.50;0.50;;;;;;;;;;5094807;28;20177;-82
2023/05/06 02:39:54;;;;;;;0.50;0.50;;;;;;;;;;5095010;28;20200;-82
2023/05/06 02:42:20;;;;;;;0.50;0.50;;;;;;;;;;5095148;28;20178;-86
2023/05/06 02:44:46;;;;;;;0.50;0.50;;;;;;;;;;5096574;28;20190;-82
2023/05/06 02:47:12;;;;;;;0.47;0.47;;;;;;;;;;5097176;28;20166;-85
2023/05/06 02:49:38;;;;;;;0.53;0.53;;;;;;;;;;5097349;28;20193;-83
2023/05/06 02:52:04;;;;;;;0.60;0.60;;;;;;;;;;5097487;28;20226;-83
2023/05/06 02:54:30;;;;;;;0.43;0.43;;;;;;;;;;5097959;28;20218;-83
2023/05/06 02:56:56;;;;;;;0.40;0.40;;;;;;;;;;5098869;28;20622;-83
2023/05/06 02:59:23;;;;;;;0.60;0.60;;;;;;;;;;5097934;28;20238;-83
2023/05/06 03:01:49;;;;;;;0.50;0.50;;;;;;;;;;5097903;28;20184;-82
2023/05/06 03:04:15;;;;;;;0.43;0.43;;;;;;;;;;5097212;28;20204;-83
2023/05/06 03:06:41;;;;;;;0.50;0.50;;;;;;;;;;5097669;28;20179;-84
2023/05/06 03:09:07;;;;;;;0.60;0.60;;;;;;;;;;5097505;28;20185;-83
2023/05/06 03:11:33;;;;;;;0.60;0.60;;;;;;;;;;5097922;28;20465;-84
2023/05/06 03:13:59;;;;;;;0.60;0.60;;;;;;;;;;5097571;28;20204;-84
2023/05/06 03:16:25;;;;;;;0.57;0.57;;;;;;;;;;5098465;28;20284;-84
2023/05/06 03:18:51;;;;;;;0.50;0.50;;;;;;;;;;5098038;28;20268;-84
2023/05/06 03:21:17;;;;;;;0.40;0.40;;;;;;;;;;5098406;28;20260;-85
2023/05/06 03:23:43;;;;;;;0.43;0.43;;;;;;;;;;5099207;28;20312;-89
2023/05/06 03:26:09;;;;;;;0.50;0.50;;;;;;;;;;5098180;28;20272;-86
2023/05/06 03:28:35;;;;;;;0.50;0.50;;;;;;;;;;5099316;28;20186;-86
2023/05/06 03:31:01;;;;;;;0.50;0.50;;;;;;;;;;5099732;28;20235;-87
2023/05/06 03:33:27;;;;;;;0.50;0.50;;;;;;;;;;5089351;22;20231;-83
2023/05/06 03:35:53;;;;;;;0.60;0.60;;;;;;;;;;5038321;28;20211;-83
2023/05/06 03:38:20;;;;;;;0.50;0.50;;;;;;;;;;5039170;28;20211;-84
2023/05/06 03:40:45;;;;;;;0.50;0.50;;;;;;;;;;5039290;28;20186;-85
2023/05/06 03:43:11;;;;;;;0.50;0.50;;;;;;;;;;5039177;28;20191;-84
2023/05/06 03:45:37;;;;;;;0.60;0.60;;;;;;;;;;5034573;28;20187;-83
2023/05/06 03:48:03;;;;;;;0.60;0.60;;;;;;;;;;5037835;28;20180;-83
2023/05/06 03:50:29;;;;;;;0.60;0.60;;;;;;;;;;5038817;28;20207;-83
2023/05/06 03:52:55;;;;;;;0.57;0.57;;;;;;;;;;5038279;28;20307;-82
2023/05/06 03:55:21;;;;;;;0.50;0.50;;;;;;;;;;5038076;28;20216;-82
2023/05/06 03:57:47;;;;;;;0.50;0.50;;;;;;;;;;5038360;28;20179;-82
2023/05/06 04:00:13;;;;;;;0.70;0.70;;;;;;;;;;5038339;28;20175;-81
2023/05/06 04:02:41;;;;;;;0.70;0.70;;;;;;;;;;5035037;28;20238;-82
2023/05/06 04:05:07;;;;;;;0.50;0.50;;;;;;;;;;5035723;28;20203;-81
2023/05/06 04:07:33;;;;;;;0.57;0.57;;;;;;;;;;5036537;28;20172;-81
2023/05/06 04:09:59;;;;;;;0.50;0.50;;;;;;;;;;5036622;28;20175;-84
2023/05/06 04:12:26;;;;;;;0.60;0.60;;;;;;;;;;5039221;28;20175;-81
2023/05/06 04:14:52;;;;;;;0.53;0.53;;;;;;;;;;5040033;28;20211;-82
2023/05/06 04:17:18;;;;;;;0.50;0.50;;;;;;;;;;5039774;28;20176;-82
2023/05/06 04:19:44;;;;;;;0.50;0.50;;;;;;;;;;5039705;28;20183;-81
2023/05/06 04:22:10;;;;;;;0.40;0.40;;;;;;;;;;5039014;28;20233;-82
2023/05/06 04:24:36;;;;;;;0.57;0.57;;;;;;;;;;5038556;28;20196;-81
2023/05/06 04:27:03;;;;;;;0.50;0.50;;;;;;;;;;5038630;28;20180;-81
2023/05/06 04:29:29;;;;;;;0.60;0.60;;;;;;;;;;5039305;28;20180;-81
2023/05/06 04:31:55;;;;;;;0.50;0.50;;;;;;;;;;5038935;28;20617;-82
2023/05/06 04:34:21;;;;;;;0.40;0.40;;;;;;;;;;5038876;28;20188;-81
2023/05/06 04:36:48;;;;;;;0.50;0.50;;;;;;;;;;5037855;28;20242;-81
2023/05/06 04:39:15;;;;;;;0.40;0.40;;;;;;;;;;5038010;28;20188;-81
2023/05/06 04:41:41;;;;;;;0.53;0.53;;;;;;;;;;5039439;28;20184;-82
2023/05/06 04:44:07;;;;;;;0.60;0.60;;;;;;;;;;5038699;28;20206;-82
2023/05/06 04:46:33;;;;;;;0.60;0.60;;;;;;;;;;5039766;28;20202;-82
2023/05/06 04:49:00;;;;;;;0.50;0.50;;;;;;;;;;5039160;28;20264;-82
2023/05/06 04:51:25;;;;;;;0.50;0.50;;;;;;;;;;5038578;28;20175;-81
2023/05/06 04:53:51;;;;;;;0.40;0.40;;;;;;;;;;5045720;28;20191;-81
2023/05/06 04:56:17;;;;;;;0.47;0.47;;;;;;;;;;5042221;28;20222;-82
2023/05/06 04:58:43;;;;;;;0.40;0.40;;;;;;;;;;5038054;28;20176;-81
2023/05/06 05:01:10;;;;;;;0.40;0.40;;;;;;;;;;5038445;28;20291;-82
2023/05/06 05:03:36;;;;;;;0.40;0.40;;;;;;;;;;5038467;28;20593;-82
2023/05/06 05:06:02;;;;;;;0.50;0.50;;;;;;;;;;5038774;28;20183;-82
2023/05/06 05:08:28;;;;;;;0.43;0.43;;;;;;;;;;5039084;28;20709;-81
2023/05/06 05:10:54;;;;;;;0.50;0.50;;;;;;;;;;5038898;28;20591;-82
2023/05/06 05:13:20;;;;;;;0.40;0.40;;;;;;;;;;5038344;28;20179;-82
2023/05/06 05:15:46;;;;;;;0.43;0.43;;;;;;;;;;5038581;28;20219;-81
2023/05/06 05:18:12;;;;;;;0.60;0.60;;;;;;;;;;5038952;28;20275;-81
2023/05/06 05:20:38;;;;;;;0.50;0.50;;;;;;;;;;5038794;28;20216;-81
2023/05/06 05:23:04;;;;;;;0.50;0.50;;;;;;;;;;5038500;28;20176;-82
2023/05/06 05:25:30;;;;;;;0.40;0.40;;;;;;;;;;5038933;28;20247;-82
2023/05/06 05:27:56;;;;;;;0.53;0.53;;;;;;;;;;5038602;28;20184;-82
2023/05/06 05:30:22;;;;;;;0.50;0.50;;;;;;;;;;5038661;28;20176;-81
2023/05/06 05:32:48;;;;;;;0.50;0.50;;;;;;;;;;5038100;28;20195;-82
2023/05/06 05:35:15;;;;;;;0.40;0.40;;;;;;;;;;5038705;28;20219;-82
2023/05/06 05:37:41;;;;;;;0.50;0.50;;;;;;;;;;5038724;28;20183;-81
2023/05/06 05:40:07;;;;;;;0.57;0.57;;;;;;;;;;5039392;28;20183;-82
2023/05/06 05:42:33;;;;;;;0.50;0.50;;;;;;;;;;5037941;28;20748;-82
2023/05/06 05:44:59;;;;;;;0.60;0.60;;;;;;;;;;5037654;28;20200;-82
2023/05/06 05:47:25;;;;;;;0.47;0.47;;;;;;;;;;5038549;28;20176;-82
2023/05/06 05:49:51;;;;;;;0.60;0.60;;;;;;;;;;5039063;28;20179;-81
2023/05/06 05:52:17;;;;;;;0.63;0.63;;;;;;;;;;5038161;28;20187;-82
2023/05/06 05:54:43;;;;;;;0.43;0.43;;;;;;;;;;5038557;28;20233;-83
2023/05/06 05:57:09;;;;;;;0.50;0.50;;;;;;;;;;5038870;28;20172;-83
2023/05/06 05:59:36;;;;;;;0.50;0.50;;;;;;;;;;5038863;28;20233;-81
2023/05/06 06:02:02;;;;;;;0.50;0.50;;;;;;;;;;5038742;28;20201;-84
2023/05/06 06:04:28;;;;;;;0.40;0.40;;;;;;;;;;5038530;28;20529;-82
2023/05/06 06:06:56;;;;;;;0.30;0.30;;;;;;;;;;5039012;28;20252;-83
2023/05/06 06:09:22;;;;;;;0.60;0.60;;;;;;;;;;5039271;28;20525;-83
2023/05/06 06:11:48;;;;;;;0.40;0.40;;;;;;;;;;5039304;28;20180;-83
2023/05/06 06:14:14;;;;;;;0.50;0.50;;;;;;;;;;5038979;28;20634;-83
2023/05/06 06:16:41;;;;;;;0.43;0.43;;;;;;;;;;5039265;28;20172;-83
2023/05/06 06:19:07;;;;;;;0.47;0.47;;;;;;;;;;5039604;28;20210;-83
2023/05/06 06:21:33;;;;;;;0.50;0.50;;;;;;;;;;5040006;28;20245;-84
2023/05/06 06:23:59;;;;;;;0.50;0.50;;;;;;;;;;5039663;28;20207;-83
2023/05/06 06:26:25;;;;;;;0.50;0.50;;;;;;;;;;5039530;28;20180;-83
2023/05/06 06:28:51;;;;;;;0.40;0.40;;;;;;;;;;5039131;28;20187;-84
2023/05/06 06:31:17;;;;;;;0.40;0.40;;;;;;;;;;5037195;28;20190;-83
2023/05/06 06:33:43;;;;;;;0.40;0.40;;;;;;;;;;5037840;28;20215;-84
2023/05/06 06:36:09;;;;;;;0.60;0.60;;;;;;;;;;5039143;28;20577;-84
2023/05/06 06:38:35;;;;;;;0.50;0.50;;;;;;;;;;5040888;28;20172;-84
2023/05/06 06:41:01;;;;;;;0.50;0.50;;;;;;;;;;5052986;28;20164;-81
2023/05/06 06:43:27;;;;;;;0.40;0.40;;;;;;;;;;5050908;28;20191;-81
2023/05/06 06:45:53;;;;;;;0.50;0.50;;;;;;;;;;5051287;28;20184;-80
2023/05/06 06:48:19;;;;;;;0.50;0.50;;;;;;;;;;5046098;28;20242;-80
2023/05/06 06:50:45;;;;;;;0.50;0.50;;;;;;;;;;5048555;28;20194;-83
2023/05/06 06:53:11;;;;;;;0.40;0.40;;;;;;;;;;5052084;28;20195;-81
2023/05/06 06:55:37;;;;;;;0.47;0.47;;;;;;;;;;5051977;28;20211;-82
2023/05/06 06:58:03;;;;;;;0.43;0.43;;;;;;;;;;5052426;28;20186;-81
2023/05/06 07:00:29;;;;;;;0.47;0.47;;;;;;;;;;5049856;28;20194;-82
2023/05/06 07:02:55;;;;;;;0.43;0.43;;;;;;;;;;5053397;28;20175;-82
2023/05/06 07:05:21;;;;;;;0.60;0.60;;;;;;;;;;5052138;28;20207;-82
2023/05/06 07:07:47;;;;;;;0.43;0.43;;;;;;;;;;5051168;28;20168;-82
2023/05/06 07:10:13;;;;;;;0.37;0.37;;;;;;;;;;5051195;28;20744;-83
2023/05/06 07:12:39;;;;;;;0.40;0.40;;;;;;;;;;5042337;28;20258;-82
2023/05/06 07:15:05;;;;;;;0.50;0.50;;;;;;;;;;5036183;28;20211;-81
2023/05/06 07:17:32;;;;;;;0.40;0.40;;;;;;;;;;5037184;28;20214;-82
2023/05/06 07:19:58;;;;;;;0.37;0.37;;;;;;;;;;5037012;28;20182;-84
2023/05/06 07:22:24;;;;;;;0.40;0.40;;;;;;;;;;5034751;28;20606;-85
2023/05/06 07:24:50;;;;;;;0.30;0.30;;;;;;;;;;5036144;28;20199;-82
2023/05/06 07:27:16;;;;;;;0.37;0.37;;;;;;;;;;5037163;28;20210;-81
2023/05/06 07:29:42;;;;;;;0.40;0.40;;;;;;;;;;5035984;28;20247;-79
2023/05/06 07:32:09;;;;;;;0.30;0.30;;;;;;;;;;5035946;28;20227;-82
2023/05/06 07:34:35;;;;;;;0.40;0.40;;;;;;;;;;5032873;28;20270;-83
2023/05/06 07:37:02;;;;;;;0.40;0.40;;;;;;;;;;5037296;28;20198;-80
2023/05/06 07:39:28;;;;;;;0.40;0.40;;;;;;;;;;5035314;28;20183;-81
2023/05/06 07:41:55;;;;;;;0.30;0.30;;;;;;;;;;5035245;28;20258;-80
2023/05/06 07:44:21;;;;;;;0.40;0.40;;;;;;;;;;5034687;28;20274;-80
2023/05/06 07:46:47;;;;;;;0.40;0.40;;;;;;;;;;5035463;28;20183;-80
2023/05/06 07:49:13;;;;;;;0.30;0.30;;;;;;;;;;5034607;28;20593;-82
2023/05/06 07:51:39;;;;;;;0.50;0.50;;;;;;;;;;5034763;28;20176;-79
2023/05/06 07:54:05;;;;;;;0.40;0.40;;;;;;;;;;5035176;28;20199;-80
2023/05/06 07:56:31;;;;;;;0.40;0.40;;;;;;;;;;5035128;28;20270;-82
2023/05/06 07:58:58;;;;;;;0.37;0.37;;;;;;;;;;5035155;28;20175;-80
2023/05/06 08:01:24;;;;;;;0.40;0.40;;;;;;;;;;5034917;28;20184;-82
2023/05/06 08:03:50;;;;;;;0.30;0.30;;;;;;;;;;5035003;28;20204;-81
2023/05/06 08:06:16;;;;;;;0.30;0.30;;;;;;;;;;5034931;28;20234;-80
2023/05/06 08:08:42;;;;;;;0.30;0.30;;;;;;;;;;5034744;28;20599;-80
2023/05/06 08:11:08;;;;;;;0.30;0.30;;;;;;;;;;5033202;28;20188;-80
2023/05/06 08:13:34;;;;;;;0.30;0.30;;;;;;;;;;5034119;28;20252;-80
2023/05/06 08:16:01;;;;;;;0.30;0.30;;;;;;;;;;5036315;28;20219;-81
2023/05/06 08:18:27;;;;;;;0.40;0.40;;;;;;;;;;5035562;28;20172;-81
2023/05/06 08:20:53;;;;;;;0.50;0.50;;;;;;;;;;5034870;28;20632;-81
2023/05/06 08:23:20;;;;;;;0.50;0.50;;;;;;;;;;5033798;28;20180;-83
2023/05/06 08:25:46;;;;;;;0.50;0.50;;;;;;;;;;5034683;28;20633;-80
2023/05/06 08:28:12;;;;;;;0.30;0.30;;;;;;;;;;5034189;28;20285;-79
2023/05/06 08:30:38;;;;;;;0.30;0.30;;;;;;;;;;5037023;28;20176;-80
2023/05/06 08:33:04;;;;;;;0.50;0.50;;;;;;;;;;5033876;28;20192;-79
2023/05/06 08:35:30;;;;;;;0.37;0.37;;;;;;;;;;5037423;28;20569;-79
2023/05/06 08:37:56;;;;;;;0.50;0.50;;;;;;;;;;5039011;28;20206;-80
2023/05/06 08:40:22;;;;;;;0.40;0.40;;;;;;;;;;5039935;28;20188;-82
2023/05/06 08:42:49;;;;;;;0.40;0.40;;;;;;;;;;5038861;28;20180;-85
2023/05/06 08:45:18;;;;;;;0.43;0.43;;;;;;;;;;5039557;28;20196;-84
2023/05/06 08:47:46;;;;;;;0.50;0.50;;;;;;;;;;5040277;28;20175;-84
2023/05/06 08:50:12;;;;;;;0.30;0.30;;;;;;;;;;5040964;28;20192;-83
2023/05/06 08:52:39;;;;;;;0.37;0.37;;;;;;;;;;5040386;28;20183;-84
2023/05/06 08:55:06;;;;;;;0.50;0.50;;;;;;;;;;5044267;28;20242;-83
2023/05/06 08:57:32;;;;;;;0.43;0.43;;;;;;;;;;5027900;28;20191;-84
2023/05/06 08:59:59;;;;;;;0.50;0.50;;;;;;;;;;5031735;28;20182;-86
2023/05/06 09:02:25;;;;;;;0.47;0.47;;;;;;;;;;5034291;28;20179;-83
2023/05/06 09:04:52;;;;;;;0.30;0.30;;;;;;;;;;5029731;28;20211;-83
2023/05/06 09:07:20;;;;;;;0.30;0.30;;;;;;;;;;5034388;28;20175;-83
2023/05/06 09:09:46;;;;;;;0.40;0.40;;;;;;;;;;5037496;28;20199;-84
2023/05/06 09:12:12;;;;;;;0.20;0.20;;;;;;;;;;5053583;28;20177;-83
2023/05/06 09:14:39;;;;;;;0.30;0.30;;;;;;;;;;5037600;28;20695;-82
2023/05/06 09:17:05;;;;;;;0.30;0.30;;;;;;;;;;5041630;28;20554;-82
2023/05/06 09:19:31;;;;;;;0.33;0.33;;;;;;;;;;5025584;28;20181;-80
2023/05/06 09:21:57;;;;;;;0.30;0.30;;;;;;;;;;5045488;28;20249;-80
2023/05/06 09:24:23;;;;;;;0.30;0.30;;;;;;;;;;5039689;28;20215;-82
2023/05/06 09:26:54;;;;;;;0.40;0.40;;;;;;;;;;5029355;28;20240;-81
2023/05/06 09:29:20;;;;;;;0.30;0.30;;;;;;;;;;5036160;28;20318;-81
2023/05/06 09:31:47;;;;;;;0.40;0.40;;;;;;;;;;5021565;28;20280;-81
2023/05/06 09:34:14;;;;;;;0.30;0.30;;;;;;;;;;5030988;28;20196;-82
2023/05/06 09:36:40;;;;;;;0.30;0.30;;;;;;;;;;5027971;28;20215;-82
2023/05/06 09:39:07;;;;;;;0.33;0.33;;;;;;;;;;5022393;28;20180;-81
2023/05/06 09:41:33;;;;;;;0.30;0.30;;;;;;;;;;5032984;28;20191;-81
2023/05/06 09:43:59;;;;;;;0.50;0.50;;;;;;;;;;5021110;28;20192;-81
2023/05/06 09:46:26;;;;;;;0.47;0.47;;;;;;;;;;5034806;28;20172;-80
2023/05/06 09:48:53;;;;;;;0.37;0.37;;;;;;;;;;5033255;28;20180;-81
2023/05/06 09:51:20;;;;;;;0.30;0.30;;;;;;;;;;5038701;28;20200;-82
2023/05/06 09:53:46;;;;;;;0.30;0.30;;;;;;;;;;5035697;28;20573;-82
2023/05/06 09:56:13;;;;;;;0.40;0.40;;;;;;;;;;5026335;28;20226;-84
2023/05/06 09:58:40;;;;;;;0.30;0.30;;;;;;;;;;5029872;28;20215;-81
2023/05/06 10:01:07;;;;;;;0.40;0.40;;;;;;;;;;5032553;28;20550;-81
2023/05/06 10:03:33;;;;;;;0.30;0.30;;;;;;;;;;5021091;28;20196;-79
2023/05/06 10:06:04;;;;;;;0.33;0.33;;;;;;;;;;5034087;28;20169;-80
2023/05/06 10:08:32;;;;;;;0.30;0.30;;;;;;;;;;5026160;28;20179;-82
2023/05/06 10:10:59;;;;;;;0.40;0.40;;;;;;;;;;5037764;28;20182;-80
2023/05/06 10:13:26;;;;;;;0.30;0.30;;;;;;;;;;5037495;28;20180;-83
2023/05/06 10:15:52;;;;;;;0.30;0.30;;;;;;;;;;5021797;28;20674;-80
2023/05/06 10:18:19;;;;;;;0.37;0.37;;;;;;;;;;5032210;28;20169;-81
2023/05/06 10:20:46;;;;;;;0.40;0.40;;;;;;;;;;5035078;28;20195;-80
2023/05/06 10:23:15;;;;;;;0.37;0.37;;;;;;;;;;5039330;28;20172;-82
2023/05/06 10:25:42;;;;;;;0.30;0.30;;;;;;;;;;5021654;28;20659;-81
2023/05/06 10:28:09;;;;;;;0.37;0.37;;;;;;;;;;5034699;28;20667;-81
2023/05/06 10:30:36;;;;;;;0.30;0.30;;;;;;;;;;5036498;28;20228;-80
2023/05/06 10:33:06;;;;;;;0.30;0.30;;;;;;;;;;5039704;28;20214;-81
2023/05/06 10:35:32;;;;;;;0.30;0.30;;;;;;;;;;5022475;28;20632;-81
2023/05/06 10:37:59;;;;;;;0.30;0.30;;;;;;;;;;5033337;28;20264;-81
2023/05/06 10:40:25;;;;;;;0.30;0.30;;;;;;;;;;5016716;28;20268;-80
2023/05/06 10:42:51;;;;;;;0.50;0.50;;;;;;;;;;5017712;28;20950;-81
2023/05/06 10:45:17;;;;;;;0.40;0.40;;;;;;;;;;5017902;28;20236;-81
2023/05/06 10:47:49;;;;;;;0.40;0.40;;;;;;;;;;5018724;28;20243;-81
2023/05/06 10:50:22;;;;;;;0.30;0.30;;;;;;;;;;5019024;28;20264;-81
2023/05/06 10:52:54;;;;;;;0.40;0.40;;;;;;;;;;5019464;28;20271;-80
2023/05/06 10:55:27;;;;;;;0.40;0.40;;;;;;;;;;5018380;28;20220;-81
2023/05/06 10:57:57;;;;;;;0.43;0.43;;;;;;;;;;5025618;28;20271;-81
2023/05/06 11:00:23;;;;;;;0.50;0.50;;;;;;;;;;5037799;28;20635;-81
2023/05/06 11:02:50;;;;;;;0.60;0.60;;;;;;;;;;5038789;28;20221;-82
2023/05/06 11:05:16;;;;;;;0.37;0.37;;;;;;;;;;5039972;28;20203;-82
2023/05/06 11:07:42;;;;;;;0.50;0.50;;;;;;;;;;5037362;28;20267;-81
2023/05/06 11:10:10;;;;;;;0.53;0.53;;;;;;;;;;5037528;28;20186;-80
2023/05/06 11:12:47;;;;;;;0.50;0.50;;;;;;;;;;5038085;28;20286;-81
2023/05/06 11:15:19;;;;;;;0.40;0.40;;;;;;;;;;5039243;28;20229;-81
2023/05/06 11:17:45;;;;;;;0.30;0.30;;;;;;;;;;5041172;28;20187;-82
2023/05/06 11:20:24;;;;;;;0.30;0.30;;;;;;;;;;5040020;28;20217;-81
2023/05/06 11:22:50;;;;;;;0.47;0.47;;;;;;;;;;5039996;28;20183;-80
2023/05/06 11:25:40;;;;;;;0.40;0.40;;;;;;;;;;5041554;28;20196;-82
2023/05/06 11:28:06;;;;;;;0.30;0.30;;;;;;;;;;5036761;28;20200;-81
2023/05/06 11:30:32;;;;;;;0.40;0.40;;;;;;;;;;5041222;28;20182;-81
2023/05/06 11:33:03;;;;;;;0.40;0.40;;;;;;;;;;5039442;28;20290;-80
2023/05/06 11:35:38;;;;;;;0.40;0.40;;;;;;;;;;5040352;28;20262;-81
2023/05/06 11:38:04;;;;;;;0.30;0.30;;;;;;;;;;5039945;28;20177;-82
2023/05/06 11:40:30;;;;;;;0.50;0.50;;;;;;;;;;5039591;28;20226;-81
2023/05/06 11:43:09;;;;;;;0.30;0.30;;;;;;;;;;5040387;28;20179;-81
2023/05/06 11:45:45;;;;;;;0.40;0.40;;;;;;;;;;5040308;28;20237;-82
2023/05/06 11:48:14;;;;;;;0.40;0.40;;;;;;;;;;5039627;28;20172;-83
2023/05/06 11:50:47;;;;;;;0.30;0.30;;;;;;;;;;5039861;28;20180;-81
2023/05/06 11:53:15;;;;;;;0.40;0.40;;;;;;;;;;5039159;28;20206;-82
2023/05/06 11:55:41;;;;;;;0.50;0.50;;;;;;;;;;5039682;28;20215;-80
2023/05/06 11:58:12;;;;;;;0.30;0.30;;;;;;;;;;5041189;28;20164;-82
2023/05/06 12:00:45;;;;;;;0.50;0.50;;;;;;;;;;5039867;28;20183;-82
2023/05/06 12:03:13;;;;;;;0.30;0.30;;;;;;;;;;5039947;28;20183;-82
2023/05/06 12:05:41;;;;;;;0.47;0.47;;;;;;;;;;5041335;28;20188;-81
2023/05/06 12:08:08;;;;;;;0.40;0.40;;;;;;;;;;5042839;28;20187;-81
2023/05/06 12:10:34;;;;;;;0.40;0.40;;;;;;;;;;5045490;28;20175;-81
2023/05/06 12:13:00;;;;;;;0.43;0.43;;;;;;;;;;5044914;28;20662;-81
2023/05/06 12:15:26;;;;;;;0.50;0.50;;;;;;;;;;5045779;28;20277;-81
2023/05/06 12:17:52;;;;;;;0.30;0.30;;;;;;;;;;5045384;28;20544;-82
2023/05/06 12:20:18;;;;;;;0.60;0.60;;;;;;;;;;5046081;28;20200;-81
2023/05/06 12:22:44;;;;;;;0.33;0.33;;;;;;;;;;5044930;28;20208;-82
2023/05/06 12:25:14;;;;;;;0.50;0.50;;;;;;;;;;5047036;28;20200;-82
2023/05/06 12:27:40;;;;;;;0.40;0.40;;;;;;;;;;5047275;28;20191;-82
2023/05/06 12:30:07;;;;;;;0.40;0.40;;;;;;;;;;5037960;28;20188;-82
2023/05/06 12:32:33;;;;;;;0.50;0.50;;;;;;;;;;5059368;28;20211;-82
2023/05/06 12:35:04;;;;;;;0.40;0.40;;;;;;;;;;5045248;28;20215;-83
2023/05/06 12:37:30;;;;;;;0.50;0.50;;;;;;;;;;5030023;28;20188;-82
2023/05/06 12:39:57;;;;;;;0.40;0.40;;;;;;;;;;5042480;28;20184;-81
2023/05/06 12:42:23;;;;;;;0.60;0.60;;;;;;;;;;5030621;28;20180;-82
2023/05/06 12:44:49;;;;;;;0.37;0.37;;;;;;;;;;5045472;28;20222;-82
2023/05/06 12:47:19;;;;;;;0.40;0.40;;;;;;;;;;5032380;28;20184;-80
2023/05/06 12:49:48;;;;;;;0.60;0.60;;;;;;;;;;5041725;28;20176;-82
2023/05/06 12:52:14;;;;;;;0.33;0.33;;;;;;;;;;5031190;28;20235;-82
2023/05/06 12:54:41;;;;;;;0.40;0.40;;;;;;;;;;5037603;28;20192;-80
2023/05/06 12:57:07;;;;;;;0.40;0.40;;;;;;;;;;5038193;28;20183;-80
2023/05/06 12:59:34;;;;;;;0.50;0.50;;;;;;;;;;5031946;28;20177;-83
2023/05/06 13:02:00;;;;;;;0.43;0.43;;;;;;;;;;5052087;28;20172;-81
2023/05/06 13:04:26;;;;;;;0.50;0.50;;;;;;;;;;5039262;28;20208;-78
2023/05/06 13:06:52;;;;;;;0.40;0.40;;;;;;;;;;5044545;28;20252;-81
2023/05/06 13:09:18;;;;;;;0.50;0.50;;;;;;;;;;5047797;28;20176;-81
2023/05/06 13:11:44;;;;;;;0.50;0.50;;;;;;;;;;5038263;28;20309;-81
2023/05/06 13:14:10;;;;;;;0.50;0.50;;;;;;;;;;5044415;28;20200;-79
2023/05/06 13:16:37;;;;;;;0.43;0.43;;;;;;;;;;5028421;28;20207;-81
2023/05/06 13:19:03;;;;;;;0.30;0.30;;;;;;;;;;5031579;28;20177;-81
2023/05/06 13:21:30;;;;;;;0.40;0.40;;;;;;;;;;5036714;28;20176;-82
2023/05/06 13:23:57;;;;;;;0.50;0.50;;;;;;;;;;5024509;28;20203;-82
2023/05/06 13:26:22;;;;;;;0.37;0.37;;;;;;;;;;5036991;28;20180;-81
2023/05/06 13:28:49;;;;;;;0.40;0.40;;;;;;;;;;5031428;28;20179;-79
2023/05/06 13:31:15;;;;;;;0.50;0.50;;;;;;;;;;5029180;28;20196;-82
2023/05/06 13:33:40;;;;;;;0.40;0.40;;;;;;;;;;5038897;28;20215;-81
2023/05/06 13:36:07;;;;;;;0.50;0.50;;;;;;;;;;5027681;28;20793;-80
2023/05/06 13:38:33;;;;;;;0.40;0.40;;;;;;;;;;5037728;28;20180;-82
2023/05/06 13:40:59;;;;;;;0.30;0.30;;;;;;;;;;5034576;28;20176;-80
2023/05/06 13:43:25;;;;;;;0.37;0.37;;;;;;;;;;5026738;28;20245;-80
2023/05/06 13:45:52;;;;;;;0.37;0.37;;;;;;;;;;5034108;28;20175;-79
2023/05/06 13:48:18;;;;;;;0.30;0.30;;;;;;;;;;5022920;28;20172;-82
2023/05/06 13:50:45;;;;;;;0.50;0.50;;;;;;;;;;5028752;28;20679;-81
2023/05/06 13:53:11;;;;;;;0.40;0.40;;;;;;;;;;5029074;28;20176;-79
2023/05/06 13:55:38;;;;;;;0.53;0.53;;;;;;;;;;5021971;28;20319;-81
2023/05/06 13:58:04;;;;;;;0.40;0.40;;;;;;;;;;5048089;28;20180;-80
2023/05/06 14:00:31;;;;;;;0.50;0.50;;;;;;;;;;5024538;28;20180;-79
2023/05/06 14:02:57;;;;;;;0.40;0.40;;;;;;;;;;5027657;28;20176;-79
2023/05/06 14:05:23;;;;;;;0.40;0.40;;;;;;;;;;5033534;28;20192;-80
2023/05/06 14:07:49;;;;;;;0.40;0.40;;;;;;;;;;5023321;28;20238;-82
2023/05/06 14:10:15;;;;;;;0.50;0.50;;;;;;;;;;5033054;28;20207;-83
2023/05/06 14:12:41;;;;;;;0.37;0.37;;;;;;;;;;5025756;28;20254;-81
2023/05/06 14:15:08;;;;;;;0.50;0.50;;;;;;;;;;5034551;28;20919;-81
2023/05/06 14:17:34;;;;;;;0.40;0.40;;;;;;;;;;5027824;28;20200;-82
2023/05/06 14:20:00;;;;;;;0.40;0.40;;;;;;;;;;5035617;28;20180;-81
2023/05/06 14:22:29;;;;;;;0.37;0.37;;;;;;;;;;5024382;28;20226;-82
2023/05/06 14:24:55;;;;;;;0.40;0.40;;;;;;;;;;5037214;28;20215;-80
2023/05/06 14:27:21;;;;;;;0.30;0.30;;;;;;;;;;5024120;28;20183;-81
2023/05/06 14:29:47;;;;;;;0.30;0.30;;;;;;;;;;5032856;28;20187;-80
2023/05/06 14:32:13;;;;;;;0.50;0.50;;;;;;;;;;5020466;28;20207;-79
2023/05/06 14:34:39;;;;;;;0.40;0.40;;;;;;;;;;5030080;28;20180;-80
2023/05/06 14:37:05;;;;;;;0.40;0.40;;;;;;;;;;5028619;28;20186;-81
2023/05/06 14:39:31;;;;;;;0.30;0.30;;;;;;;;;;5022552;28;20190;-81